Time;durP1;ratioP1;P1;durP2;ratioP2;P2;SDS_P1;SDS_P2;PMS_P1;PMS_P2;Temp;Humidity;BMP_temperature;BMP_pressure;BME280_temperature;BME280_humidity;BME280_pressure;Samples;Min_cycle;Max_cycle;Signal;HPM_P1;HPM_P2
2023/01/04 00:01:18;;;;;;;13.45;4.53;;;17.00;59.20;;;;;;5121122;28;20028;-68
2023/01/04 00:03:44;;;;;;;8.18;3.58;;;17.00;59.20;;;;;;5121249;28;20035;-68
2023/01/04 00:06:12;;;;;;;9.75;3.65;;;16.90;59.30;;;;;;5121239;28;20050;-68
2023/01/04 00:08:38;;;;;;;9.90;4.27;;;16.80;59.40;;;;;;5121374;28;20016;-69
2023/01/04 00:11:19;;;;;;;16.02;3.63;;;16.70;59.40;;;;;;5124775;28;20034;-68
2023/01/04 00:13:55;;;;;;;14.73;4.22;;;16.70;59.70;;;;;;5124847;28;20117;-67
2023/01/04 00:16:23;;;;;;;11.43;3.85;;;16.60;59.70;;;;;;5124801;27;20020;-69
2023/01/04 00:18:51;;;;;;;9.43;3.90;;;16.60;59.90;;;;;;5124737;28;20032;-68
2023/01/04 00:21:26;;;;;;;9.32;4.28;;;16.50;59.90;;;;;;5124734;28;20315;-67
2023/01/04 00:23:54;;;;;;;9.30;3.60;;;16.50;60.00;;;;;;5124639;28;20098;-68
2023/01/04 00:26:22;;;;;;;11.10;3.73;;;16.50;60.20;;;;;;5124513;28;20023;-68
2023/01/04 00:28:52;;;;;;;11.00;3.63;;;16.40;60.20;;;;;;5124545;28;20015;-68
2023/01/04 00:31:17;;;;;;;9.15;3.65;;;16.40;60.30;;;;;;5124398;28;20090;-69
2023/01/04 00:33:43;;;;;;;10.75;3.28;;;16.30;60.30;;;;;;5124369;28;20582;-69
2023/01/04 00:36:13;;;;;;;12.50;3.97;;;16.30;60.40;;;;;;5124384;27;20034;-68
2023/01/04 00:38:40;;;;;;;12.27;3.90;;;16.30;60.40;;;;;;5124340;28;20032;-69
2023/01/04 00:41:07;;;;;;;9.48;4.03;;;16.30;60.40;;;;;;5124285;28;20069;-68
2023/01/04 00:43:33;;;;;;;9.02;3.75;;;16.20;60.50;;;;;;5124188;28;20374;-69
2023/01/04 00:46:00;;;;;;;9.48;4.38;;;16.20;60.60;;;;;;5134970;27;20062;-69
2023/01/04 00:48:26;;;;;;;10.85;3.53;;;16.20;60.60;;;;;;5144647;27;20042;-69
2023/01/04 00:50:52;;;;;;;13.25;3.75;;;16.20;60.60;;;;;;5126179;27;20237;-68
2023/01/04 00:53:18;;;;;;;10.77;3.75;;;16.10;60.60;;;;;;5144655;27;20053;-69
2023/01/04 00:55:45;;;;;;;8.25;3.67;;;16.10;60.70;;;;;;5144572;27;20035;-69
2023/01/04 00:58:11;;;;;;;11.23;4.28;;;16.10;60.60;;;;;;5144506;27;20039;-68
2023/01/04 01:00:37;;;;;;;11.88;3.58;;;16.10;60.70;;;;;;5144384;27;20019;-68
2023/01/04 01:03:04;;;;;;;9.30;3.50;;;16.10;60.70;;;;;;5144364;27;20023;-68
2023/01/04 01:05:33;;;;;;;8.88;3.85;;;16.10;60.70;;;;;;5144352;27;20318;-68
2023/01/04 01:08:23;;;;;;;13.13;3.40;;;16.20;60.60;;;;;;5144331;27;20027;-68
2023/01/04 01:10:44;;;;;;;9.43;3.90;;;16.40;60.40;;;;;;5144039;27;20031;-70
2023/01/04 01:13:10;;;;;;;9.10;4.00;;;16.50;60.00;;;;;;5144258;27;20046;-69
2023/01/04 01:15:36;;;;;;;13.25;4.32;;;16.70;59.90;;;;;;5144198;27;20039;-69
2023/01/04 01:18:01;;;;;;;8.23;3.13;;;16.80;59.60;;;;;;5144078;27;20022;-69
2023/01/04 01:20:27;;;;;;;12.70;3.42;;;16.90;59.20;;;;;;5143871;27;20019;-69
2023/01/04 01:22:53;;;;;;;8.00;3.25;;;17.00;59.10;;;;;;5143998;27;20030;-70
2023/01/04 01:25:19;;;;;;;7.90;3.58;;;16.90;59.00;;;;;;5143870;27;20207;-69
2023/01/04 01:27:45;;;;;;;9.15;3.67;;;16.90;59.10;;;;;;5143832;27;20030;-71
2023/01/04 01:30:11;;;;;;;9.85;3.90;;;16.80;59.10;;;;;;5143787;27;20015;-70
2023/01/04 01:32:37;;;;;;;8.88;3.28;;;16.70;59.40;;;;;;5143735;27;20023;-69
2023/01/04 01:35:03;;;;;;;12.38;2.92;;;16.70;59.50;;;;;;5143715;27;20018;-70
2023/01/04 01:37:29;;;;;;;9.20;3.17;;;16.60;59.50;;;;;;5143760;27;20064;-69
2023/01/04 01:39:54;;;;;;;12.27;4.82;;;16.50;59.60;;;;;;5143689;27;20556;-70
2023/01/04 01:42:22;;;;;;;12.52;4.13;;;16.50;59.90;;;;;;5125288;27;20023;-70
2023/01/04 01:45:09;;;;;;;9.98;3.13;;;16.40;59.80;;;;;;5143375;27;20031;-68
2023/01/04 01:47:46;;;;;;;10.18;3.92;;;16.40;60.00;;;;;;5143451;27;20049;-70
2023/01/04 01:50:24;;;;;;;6.30;2.97;;;16.30;60.10;;;;;;5143461;27;20015;-68
2023/01/04 01:52:52;;;;;;;6.80;3.35;;;16.30;60.30;;;;;;5143417;27;20027;-69
2023/01/04 01:55:19;;;;;;;9.27;2.92;;;16.20;60.30;;;;;;5143318;27;20015;-68
2023/01/04 01:57:47;;;;;;;7.15;3.42;;;16.20;60.50;;;;;;5143289;27;20027;-69
2023/01/04 02:00:14;;;;;;;9.40;2.90;;;16.20;60.50;;;;;;5143231;27;20028;-69
2023/01/04 02:02:59;;;;;;;13.27;3.72;;;16.20;60.60;;;;;;5143154;27;20102;-68
2023/01/04 02:05:27;;;;;;;8.63;3.10;;;16.10;60.60;;;;;;5143044;27;20026;-68
2023/01/04 02:07:53;;;;;;;7.30;2.88;;;16.10;60.70;;;;;;5143150;27;20076;-68
2023/01/04 02:10:19;;;;;;;8.48;3.10;;;16.10;60.70;;;;;;5142995;27;20237;-68
2023/01/04 02:12:46;;;;;;;9.90;3.78;;;16.10;60.70;;;;;;5124478;27;20054;-68
2023/01/04 02:15:12;;;;;;;6.60;3.03;;;16.10;60.80;;;;;;5142815;27;20135;-68
2023/01/04 02:17:53;;;;;;;9.27;3.80;;;16.00;60.70;;;;;;5142901;27;20033;-68
2023/01/04 02:20:34;;;;;;;8.93;3.53;;;16.00;60.80;;;;;;5142858;27;20015;-69
2023/01/04 02:23:15;;;;;;;9.02;3.28;;;16.00;60.90;;;;;;5142853;27;20331;-69
2023/01/04 02:26:20;;;;;;;8.98;3.10;;;16.00;60.90;;;;;;5142802;27;20031;-67
2023/01/04 02:29:07;;;;;;;8.48;3.10;;;16.00;60.80;;;;;;5142917;27;20027;-69
2023/01/04 02:31:51;;;;;;;7.47;3.55;;;16.10;60.60;;;;;;5142652;27;20080;-68
2023/01/04 02:34:35;;;;;;;10.30;3.20;;;16.30;60.40;;;;;;5142366;27;20033;-69
2023/01/04 02:37:29;;;;;;;11.27;3.38;;;16.40;60.20;;;;;;5142309;27;20035;-68
2023/01/04 02:40:14;;;;;;;8.68;3.03;;;16.50;59.80;;;;;;5142281;27;20038;-69
2023/01/04 02:46:03;;;;;;;6.15;2.75;;;16.70;59.30;;;;;;5141960;27;20457;-69
2023/01/04 02:51:34;;;;;;;8.27;3.10;;;16.60;59.10;;;;;;5141822;27;20011;-68
2023/01/04 02:54:09;;;;;;;;;;;16.60;59.30;;;;;;5142722;27;20222;-68
2023/01/04 02:57:11;;;;;;;6.45;2.67;;;16.50;59.40;;;;;;5142100;28;19903;-68
2023/01/04 02:59:42;;;;;;;9.90;3.25;;;16.40;59.50;;;;;;5142075;28;20037;-68
2023/01/04 03:08:32;;;;;;;6.13;3.40;;;16.20;60.00;;;;;;5142030;28;20206;-69
2023/01/04 03:14:08;;;;;;;6.50;2.88;;;16.10;60.20;;;;;;5141979;28;20345;-69
2023/01/04 03:16:36;;;;;;;9.10;2.70;;;16.10;60.20;;;;;;5141925;28;20019;-69
2023/01/04 03:19:08;;;;;;;7.13;2.90;;;16.00;60.30;;;;;;5141889;28;20094;-67
2023/01/04 03:21:36;;;;;;;6.90;2.60;;;16.00;60.40;;;;;;5141849;28;20264;-68
2023/01/04 03:36:05;;;;;;;6.38;2.17;;;16.00;60.60;;;;;;5141671;28;20037;-68
2023/01/04 03:48:30;;;;;;;7.65;2.88;;;15.90;60.70;;;;;;5145545;27;20026;-69
2023/01/04 03:51:04;;;;;;;5.88;2.67;;;15.90;60.70;;;;;;5145528;27;20019;-69
2023/01/04 03:53:33;;;;;;;7.68;2.45;;;15.90;60.70;;;;;;5145447;27;20303;-68
2023/01/04 03:56:00;;;;;;;4.95;2.55;;;16.00;60.70;;;;;;5145239;27;20027;-70
2023/01/04 03:58:26;;;;;;;6.75;2.75;;;16.10;60.40;;;;;;5145374;27;20041;-68
2023/01/04 04:00:52;;;;;;;8.75;3.03;;;16.20;60.20;;;;;;5145149;27;20319;-68
2023/01/04 04:03:18;;;;;;;5.32;2.35;;;16.30;60.00;;;;;;5145163;27;20023;-68
2023/01/04 04:08:29;;;;;;;7.15;2.67;;;16.50;59.60;;;;;;5145077;27;20022;-67
2023/01/04 04:11:29;;;;;;;8.18;3.15;;;16.60;59.30;;;;;;5145058;27;20082;-67
2023/01/04 04:13:50;;;;;;;7.03;2.83;;;16.60;59.10;;;;;;5144965;27;20028;-68
2023/01/04 04:16:19;;;;;;;6.00;2.67;;;16.60;59.10;;;;;;5144922;27;20026;-68
2023/01/04 04:18:46;;;;;;;5.40;3.03;;;16.50;59.00;;;;;;5144916;27;20078;-69
2023/01/04 04:21:13;;;;;;;5.15;2.22;;;16.50;59.30;;;;;;5144801;27;20060;-69
2023/01/04 04:23:38;;;;;;;6.63;3.22;;;16.40;59.30;;;;;;5144807;27;20358;-69
2023/01/04 04:26:04;;;;;;;5.45;2.55;;;16.30;59.60;;;;;;5144602;27;20038;-69
2023/01/04 04:28:30;;;;;;;5.30;2.70;;;16.20;59.60;;;;;;5144700;27;20021;-68
2023/01/04 04:30:56;;;;;;;5.82;2.70;;;16.20;59.70;;;;;;5144661;27;20047;-68
2023/01/04 04:33:22;;;;;;;6.78;2.70;;;16.20;60.00;;;;;;5144604;27;20026;-69
2023/01/04 04:35:53;;;;;;;8.77;2.70;;;16.10;59.90;;;;;;5144452;27;20023;-69
2023/01/04 04:38:18;;;;;;;5.40;2.67;;;16.10;60.10;;;;;;5144541;27;20317;-68
2023/01/04 04:43:29;;;;;;;6.75;2.83;;;16.00;60.30;;;;;;5144455;27;20087;-68
2023/01/04 04:45:55;;;;;;;5.93;3.20;;;15.90;60.30;;;;;;5144212;27;20051;-68
2023/01/04 04:48:21;;;;;;;4.70;2.25;;;15.90;60.40;;;;;;5144331;27;20015;-69
2023/01/04 04:50:47;;;;;;;4.22;2.42;;;15.90;60.50;;;;;;5144306;27;20307;-69
2023/01/04 04:53:13;;;;;;;4.32;2.10;;;15.90;60.60;;;;;;5144239;27;20023;-67
2023/01/04 04:55:38;;;;;;;6.85;3.08;;;15.80;60.70;;;;;;5143744;27;20420;-69
2023/01/04 04:58:04;;;;;;;4.30;2.40;;;15.80;60.70;;;;;;5144193;27;20033;-68
2023/01/04 05:00:30;;;;;;;5.22;2.95;;;15.80;60.70;;;;;;5144118;27;20083;-69
2023/01/04 05:03:00;;;;;;;4.53;2.22;;;15.80;60.70;;;;;;5143994;27;20015;-68
2023/01/04 05:05:27;;;;;;;5.55;2.50;;;15.80;60.80;;;;;;5144009;27;20030;-68
2023/01/04 05:07:53;;;;;;;7.07;2.78;;;15.80;60.70;;;;;;5144124;27;20222;-68
2023/01/04 05:10:19;;;;;;;5.43;2.40;;;15.80;60.60;;;;;;5144082;27;20034;-69
2023/01/04 05:13:00;;;;;;;6.70;2.03;;;15.90;60.60;;;;;;5144043;27;20023;-68
2023/01/04 05:15:32;;;;;;;6.45;2.60;;;16.00;60.50;;;;;;5143958;27;20027;-70
2023/01/04 05:17:58;;;;;;;6.30;2.97;;;16.20;60.20;;;;;;5143914;27;20349;-68
2023/01/04 05:20:24;;;;;;;4.63;3.25;;;16.30;60.00;;;;;;5143900;27;20051;-69
2023/01/04 05:22:50;;;;;;;3.20;2.30;;;16.40;59.60;;;;;;5143757;27;20356;-68
2023/01/04 05:25:16;;;;;;;6.18;2.33;;;16.50;60.10;;;;;;5143652;27;20023;-68
2023/01/04 05:27:43;;;;;;;5.22;2.35;;;16.50;59.20;;;;;;5143635;27;20059;-69
2023/01/04 05:32:55;;;;;;;6.45;2.30;;;16.60;59.00;;;;;;5143647;27;20017;-69
2023/01/04 05:35:21;;;;;;;8.00;3.22;;;16.60;59.00;;;;;;5143542;27;20039;-69
2023/01/04 05:37:47;;;;;;;4.70;2.17;;;16.60;59.00;;;;;;5143444;27;20046;-68
2023/01/04 05:40:12;;;;;;;6.50;2.53;;;16.50;59.00;;;;;;5143479;27;20086;-68
2023/01/04 05:42:41;;;;;;;6.63;2.58;;;16.50;59.30;;;;;;5143368;27;20027;-68
2023/01/04 05:45:07;;;;;;;5.55;2.40;;;16.30;59.40;;;;;;5143093;27;20338;-69
2023/01/04 05:47:34;;;;;;;6.03;2.40;;;16.30;59.50;;;;;;5143238;27;20019;-69
2023/01/04 05:50:00;;;;;;;6.75;2.40;;;16.20;59.60;;;;;;5143194;27;20042;-69
2023/01/04 05:52:26;;;;;;;3.80;2.00;;;16.20;59.80;;;;;;5143226;27;20528;-69
2023/01/04 05:54:52;;;;;;;4.60;1.98;;;16.10;59.80;;;;;;5143025;27;20027;-68
2023/01/04 05:57:18;;;;;;;6.05;2.40;;;16.10;60.00;;;;;;5143012;27;20022;-69
2023/01/04 05:59:44;;;;;;;5.63;2.22;;;16.10;60.10;;;;;;5142928;27;20023;-68
2023/01/04 06:02:17;;;;;;;4.22;2.03;;;16.00;60.20;;;;;;5142899;27;20031;-69
2023/01/04 06:04:43;;;;;;;6.78;3.22;;;16.00;60.30;;;;;;5142857;27;20239;-68
2023/01/04 06:07:08;;;;;;;8.48;2.63;;;15.90;60.30;;;;;;5141947;27;20026;-68
2023/01/04 06:09:37;;;;;;;3.58;2.17;;;15.90;60.40;;;;;;5142746;27;20031;-68
2023/01/04 06:12:03;;;;;;;4.95;2.30;;;15.90;60.40;;;;;;5142697;27;20018;-68
2023/01/04 06:14:29;;;;;;;5.63;2.40;;;15.90;60.60;;;;;;5142577;27;20041;-69
2023/01/04 06:16:55;;;;;;;2.60;2.05;;;15.80;60.50;;;;;;5142599;27;20327;-69
2023/01/04 06:19:21;;;;;;;4.30;2.45;;;15.80;60.50;;;;;;5142595;27;20080;-67
2023/01/04 06:21:46;;;;;;;3.75;2.67;;;15.80;60.60;;;;;;5142606;27;20385;-69
2023/01/04 06:24:12;;;;;;;4.32;2.10;;;15.80;60.70;;;;;;5142556;27;20449;-70
2023/01/04 06:26:38;;;;;;;4.07;2.10;;;15.90;60.60;;;;;;5142360;27;20026;-68
2023/01/04 06:29:04;;;;;;;7.97;2.63;;;16.00;60.30;;;;;;5142450;27;20274;-69
2023/01/04 06:31:30;;;;;;;5.18;2.70;;;16.10;60.10;;;;;;5142365;27;20037;-68
2023/01/04 06:33:55;;;;;;;7.75;3.28;;;16.20;59.80;;;;;;5142285;27;20047;-69
2023/01/04 06:36:22;;;;;;;5.18;2.85;;;16.30;59.60;;;;;;5142249;27;20027;-69
2023/01/04 06:38:48;;;;;;;3.67;1.92;;;16.50;59.40;;;;;;5142287;27;20038;-70
2023/01/04 06:41:14;;;;;;;2.38;1.55;;;16.60;59.20;;;;;;5142258;27;20048;-69
2023/01/04 06:43:40;;;;;;;3.58;2.20;;;16.60;59.00;;;;;;5142219;27;20238;-68
2023/01/04 06:46:08;;;;;;;5.75;1.98;;;16.70;58.90;;;;;;5141859;27;20054;-68
2023/01/04 06:48:34;;;;;;;4.57;2.17;;;16.60;58.90;;;;;;5142163;27;20015;-69
2023/01/04 06:51:00;;;;;;;4.60;2.20;;;16.50;58.90;;;;;;5142077;27;20037;-68
2023/01/04 06:53:25;;;;;;;3.95;2.40;;;16.50;59.10;;;;;;5142020;27;20196;-68
2023/01/04 06:55:51;;;;;;;3.85;2.28;;;16.50;59.30;;;;;;5142028;27;20023;-69
2023/01/04 06:58:17;;;;;;;5.00;2.78;;;16.40;59.30;;;;;;5141974;27;20031;-68
2023/01/04 07:00:43;;;;;;;3.58;2.05;;;16.30;59.50;;;;;;5141977;28;20026;-68
2023/01/04 07:03:09;;;;;;;4.65;2.17;;;16.20;59.60;;;;;;5141902;28;20027;-69
2023/01/04 07:05:35;;;;;;;5.28;2.38;;;16.20;59.60;;;;;;5123363;28;20048;-68
2023/01/04 07:08:01;;;;;;;7.18;2.10;;;16.20;59.80;;;;;;5141872;28;20027;-68
2023/01/04 07:10:28;;;;;;;3.22;2.22;;;16.10;59.90;;;;;;5141846;28;20027;-68
2023/01/04 07:12:56;;;;;;;3.75;2.05;;;16.10;60.00;;;;;;5141831;28;20342;-68
2023/01/04 07:15:22;;;;;;;4.53;2.20;;;16.00;60.00;;;;;;5141812;28;20019;-69
2023/01/04 07:17:48;;;;;;;3.42;2.22;;;16.00;60.10;;;;;;5141812;27;20477;-69
2023/01/04 07:20:15;;;;;;;2.55;2.13;;;16.00;60.20;;;;;;5145984;27;20011;-69
2023/01/04 07:22:40;;;;;;;3.92;2.10;;;16.00;60.30;;;;;;5145988;27;20019;-68
2023/01/04 07:25:07;;;;;;;4.90;2.28;;;15.90;60.30;;;;;;5145876;27;20023;-68
2023/01/04 07:27:33;;;;;;;5.97;3.35;;;15.90;60.30;;;;;;5145917;27;20027;-69
2023/01/04 07:29:58;;;;;;;3.10;1.90;;;15.90;60.30;;;;;;5145850;27;20036;-69
2023/01/04 07:32:24;;;;;;;3.67;2.38;;;15.90;60.40;;;;;;5145829;27;20206;-69
2023/01/04 07:34:50;;;;;;;3.42;2.17;;;15.90;60.40;;;;;;5145758;27;20033;-68
2023/01/04 07:37:16;;;;;;;3.63;2.00;;;15.90;60.40;;;;;;5145699;27;20023;-68
2023/01/04 07:39:42;;;;;;;2.88;2.13;;;15.90;60.30;;;;;;5145662;27;20031;-68
2023/01/04 07:42:09;;;;;;;4.15;1.92;;;16.00;60.00;;;;;;5145644;27;20058;-69
2023/01/04 07:44:35;;;;;;;3.33;1.95;;;16.20;59.80;;;;;;5145550;27;20041;-69
2023/01/04 07:47:01;;;;;;;4.25;2.35;;;16.30;59.70;;;;;;5145319;27;20043;-68
2023/01/04 07:49:27;;;;;;;3.30;2.20;;;16.40;59.40;;;;;;5145400;27;20015;-69
2023/01/04 07:51:53;;;;;;;3.42;2.17;;;16.50;59.20;;;;;;5145381;27;20125;-69
2023/01/04 07:54:19;;;;;;;3.20;2.35;;;16.60;58.90;;;;;;5145395;27;20019;-69
2023/01/04 07:56:46;;;;;;;8.63;2.35;;;16.60;58.60;;;;;;5145319;27;20031;-69
2023/01/04 07:59:13;;;;;;;3.30;2.05;;;16.70;58.70;;;;;;5145261;27;20068;-68
2023/01/04 08:01:40;;;;;;;4.43;2.33;;;16.60;58.50;;;;;;5145221;27;20039;-68
2023/01/04 08:04:10;;;;;;;5.10;1.98;;;16.60;58.50;;;;;;5145174;27;20041;-67
2023/01/04 08:06:37;;;;;;;4.10;1.92;;;16.50;58.60;;;;;;5145037;27;20327;-68
2023/01/04 08:09:04;;;;;;;7.10;2.50;;;16.40;58.70;;;;;;5145020;27;20030;-69
2023/01/04 08:11:31;;;;;;;3.85;1.83;;;16.40;58.90;;;;;;5145085;27;20054;-69
2023/01/04 08:13:57;;;;;;;2.72;1.90;;;16.40;59.00;;;;;;5145044;27;20035;-68
2023/01/04 08:16:27;;;;;;;2.53;1.85;;;16.30;59.00;;;;;;5144973;27;20034;-68
2023/01/04 08:18:54;;;;;;;3.60;2.22;;;16.30;59.10;;;;;;5144991;27;20027;-69
2023/01/04 08:21:21;;;;;;;2.38;1.60;;;16.20;59.20;;;;;;5144867;27;20053;-70
2023/01/04 08:23:47;;;;;;;4.38;2.38;;;16.20;59.20;;;;;;5144782;27;20346;-68
2023/01/04 08:26:15;;;;;;;3.63;2.10;;;16.20;59.30;;;;;;5144739;27;20022;-68
2023/01/04 08:28:41;;;;;;;3.03;2.13;;;16.20;59.50;;;;;;5144756;27;20086;-69
2023/01/04 08:31:10;;;;;;;3.58;1.90;;;16.20;59.50;;;;;;5143821;27;20025;-68
2023/01/04 08:33:37;;;;;;;5.13;2.13;;;16.10;59.40;;;;;;5144639;27;20069;-68
2023/01/04 08:36:18;;;;;;;5.75;2.50;;;16.10;59.40;;;;;;5144585;27;20031;-69
2023/01/04 08:38:45;;;;;;;3.65;2.40;;;16.10;59.50;;;;;;5144579;27;20157;-69
2023/01/04 08:41:12;;;;;;;5.07;1.80;;;16.10;59.50;;;;;;5144467;27;20064;-68
2023/01/04 08:43:38;;;;;;;2.65;1.52;;;16.20;59.50;;;;;;5144407;27;20078;-68
2023/01/04 08:46:05;;;;;;;1.90;1.70;;;16.20;59.50;;;;;;5144136;27;20074;-69
2023/01/04 08:48:32;;;;;;;3.28;1.65;;;16.20;59.50;;;;;;5144335;27;20072;-69
2023/01/04 08:51:03;;;;;;;2.83;1.70;;;16.20;59.50;;;;;;5144303;27;20011;-68
2023/01/04 08:53:29;;;;;;;4.18;1.92;;;16.20;59.50;;;;;;5144275;27;20027;-67
2023/01/04 08:55:55;;;;;;;3.55;2.17;;;16.20;59.50;;;;;;5144258;27;20023;-68
2023/01/04 08:58:23;;;;;;;4.50;2.00;;;16.20;59.50;;;;;;5144151;27;20031;-68
2023/01/04 09:00:49;;;;;;;1.65;1.38;;;16.20;59.50;;;;;;5144173;27;20064;-68
2023/01/04 09:03:15;;;;;;;2.70;2.05;;;16.10;59.40;;;;;;5144001;27;20035;-69
2023/01/04 09:05:41;;;;;;;3.25;1.80;;;16.10;59.40;;;;;;5144028;27;20046;-68
2023/01/04 09:08:07;;;;;;;3.95;1.90;;;16.20;59.50;;;;;;5143924;27;20338;-67
2023/01/04 09:10:37;;;;;;;3.13;1.80;;;16.20;59.30;;;;;;5143909;27;20074;-68
2023/01/04 09:13:03;;;;;;;2.63;1.75;;;16.40;59.10;;;;;;5143912;27;20019;-67
2023/01/04 09:15:30;;;;;;;2.90;2.30;;;16.50;58.90;;;;;;5143871;27;20075;-67
2023/01/04 09:17:55;;;;;;;3.10;1.90;;;16.70;58.60;;;;;;5143747;27;20023;-68
2023/01/04 09:20:21;;;;;;;3.05;1.70;;;16.80;58.40;;;;;;5143764;27;20334;-69
2023/01/04 09:22:47;;;;;;;4.20;1.75;;;16.90;58.10;;;;;;5143665;27;20023;-69
2023/01/04 09:25:13;;;;;;;7.22;2.47;;;17.00;57.80;;;;;;5143566;27;20311;-68
2023/01/04 09:27:41;;;;;;;3.40;1.77;;;17.00;57.60;;;;;;5143613;27;20026;-68
2023/01/04 09:30:08;;;;;;;4.15;1.98;;;17.10;57.40;;;;;;5143579;27;20015;-68
2023/01/04 09:32:34;;;;;;;3.13;1.98;;;17.10;57.30;;;;;;5143538;27;20030;-68
2023/01/04 09:35:00;;;;;;;4.28;1.63;;;17.10;57.10;;;;;;5143447;27;20023;-69
2023/01/04 09:37:25;;;;;;;3.53;1.95;;;17.10;57.20;;;;;;5143395;27;20350;-68
2023/01/04 09:39:51;;;;;;;2.22;1.42;;;17.00;57.30;;;;;;5124962;27;20030;-68
2023/01/04 09:42:29;;;;;;;3.13;2.08;;;16.90;57.50;;;;;;5143259;27;20023;-67
2023/01/04 09:45:00;;;;;;;2.67;1.60;;;16.90;57.70;;;;;;5143126;27;20049;-70
2023/01/04 09:47:42;;;;;;;3.25;2.03;;;16.80;57.90;;;;;;5124789;27;20110;-69
2023/01/04 09:50:26;;;;;;;2.95;1.90;;;16.80;58.00;;;;;;5143331;27;20257;-68
2023/01/04 09:52:59;;;;;;;3.42;2.00;;;16.70;58.10;;;;;;5143196;27;20060;-69
2023/01/04 09:55:48;;;;;;;1.73;1.58;;;16.70;58.20;;;;;;5143055;27;20023;-68
2023/01/04 09:58:28;;;;;;;2.13;1.92;;;16.70;58.40;;;;;;5142857;27;20023;-69
2023/01/04 10:01:19;;;;;;;2.30;1.77;;;16.60;58.40;;;;;;5142834;27;20039;-68
2023/01/04 10:03:59;;;;;;;3.83;1.98;;;16.60;58.40;;;;;;5142841;27;20071;-68
2023/01/04 10:06:25;;;;;;;3.00;1.77;;;16.70;58.50;;;;;;5142703;27;20382;-69
2023/01/04 10:08:51;;;;;;;1.85;1.65;;;16.60;58.30;;;;;;5142721;27;20023;-69
2023/01/04 10:11:32;;;;;;;2.97;1.88;;;16.70;58.40;;;;;;5142675;27;20019;-68
2023/01/04 10:14:37;;;;;;;4.28;1.90;;;16.70;58.40;;;;;;5142661;27;20078;-68
2023/01/04 10:17:16;;;;;;;3.25;1.95;;;16.60;58.30;;;;;;5142520;27;20038;-69
2023/01/04 10:19:41;;;;;;;2.55;1.85;;;16.60;58.40;;;;;;5142643;27;20034;-69
2023/01/04 10:22:22;;;;;;;2.53;1.90;;;16.60;58.50;;;;;;5142450;27;20022;-69
2023/01/04 10:24:54;;;;;;;2.25;1.70;;;16.50;58.40;;;;;;5142545;27;20044;-68
2023/01/04 10:27:37;;;;;;;3.28;1.60;;;16.60;58.40;;;;;;5142596;27;20041;-68
2023/01/04 10:30:12;;;;;;;2.90;1.80;;;16.50;58.30;;;;;;5124073;27;20022;-69
2023/01/04 10:32:43;;;;;;;4.47;1.60;;;16.50;58.30;;;;;;5142387;27;20023;-68
2023/01/04 10:35:26;;;;;;;2.45;1.88;;;16.60;58.40;;;;;;5142282;27;20038;-69
2023/01/04 10:38:09;;;;;;;2.13;1.63;;;16.50;58.30;;;;;;5142252;27;20023;-68
2023/01/04 10:40:38;;;;;;;2.53;1.80;;;16.60;58.30;;;;;;5142238;27;20015;-68
2023/01/04 10:43:11;;;;;;;4.43;1.85;;;16.60;58.30;;;;;;5142107;27;20011;-68
2023/01/04 10:45:50;;;;;;;3.08;1.60;;;16.60;58.20;;;;;;5141901;27;20046;-69
2023/01/04 10:48:47;;;;;;;2.55;1.90;;;16.60;58.10;;;;;;5142130;27;20022;-68
2023/01/04 10:51:16;;;;;;;3.08;1.65;;;16.60;58.10;;;;;;5142051;27;20030;-68
2023/01/04 10:53:55;;;;;;;2.95;1.65;;;16.70;58.00;;;;;;5141591;27;20027;-67
2023/01/04 10:56:59;;;;;;;2.55;1.95;;;16.90;57.80;;;;;;5142023;27;20039;-68
2023/01/04 10:59:43;;;;;;;2.65;1.67;;;17.10;57.50;;;;;;5038459;28;20190;-69
2023/01/04 11:02:21;;;;;;;2.85;2.03;;;17.30;56.90;;;;;;5135835;28;20128;-69
2023/01/04 11:05:12;;;;;;;3.38;1.80;;;17.50;56.30;;;;;;5141922;28;20023;-69
2023/01/04 11:07:49;;;;;;;2.95;2.08;;;17.60;56.00;;;;;;5141879;28;20054;-68
2023/01/04 11:10:20;;;;;;;3.03;1.63;;;17.70;55.70;;;;;;5141886;28;20015;-68
2023/01/04 11:12:45;;;;;;;3.85;1.50;;;17.70;55.80;;;;;;5141902;28;20023;-68
2023/01/04 11:15:14;;;;;;;3.10;1.75;;;17.70;55.90;;;;;;5141788;28;20046;-68
2023/01/04 11:17:44;;;;;;;2.38;1.73;;;17.60;56.00;;;;;;5141790;28;20311;-68
2023/01/04 11:20:10;;;;;;;1.65;1.42;;;17.60;56.20;;;;;;5141752;28;20031;-69
2023/01/04 11:22:42;;;;;;;1.98;1.73;;;17.50;56.30;;;;;;5141737;28;20015;-69
2023/01/04 11:25:21;;;;;;;2.78;1.80;;;17.50;56.40;;;;;;5141724;28;20065;-69
2023/01/04 11:27:55;;;;;;;2.05;1.70;;;17.40;56.50;;;;;;5141704;28;20026;-67
2023/01/04 11:30:24;;;;;;;2.80;1.90;;;17.40;56.60;;;;;;5123272;28;20011;-68
2023/01/04 11:33:09;;;;;;;2.13;1.75;;;17.40;56.60;;;;;;5141686;28;20015;-69
2023/01/04 11:35:37;;;;;;;4.13;1.83;;;17.40;56.60;;;;;;5141612;28;20023;-68
2023/01/04 11:38:13;;;;;;;2.50;1.67;;;17.40;56.70;;;;;;5141625;28;20118;-68
2023/01/04 11:40:40;;;;;;;1.65;1.40;;;17.30;56.70;;;;;;5141615;28;20072;-70
2023/01/04 11:43:17;;;;;;;2.78;1.83;;;17.30;57.30;;;;;;5141486;28;20082;-69
2023/01/04 11:46:15;;;;;;;2.37;1.80;;;17.30;56.80;;;;;;5141352;28;20096;-69
2023/01/04 11:48:44;;;;;;;4.07;1.85;;;17.30;56.80;;;;;;5110972;28;20053;-68
2023/01/04 11:51:28;;;;;;;2.50;1.67;;;17.30;56.70;;;;;;5141524;28;20327;-68
2023/01/04 11:54:05;;;;;;;2.40;1.63;;;17.30;56.80;;;;;;5141441;28;20027;-69
2023/01/04 11:56:33;;;;;;;4.47;1.85;;;17.30;56.80;;;;;;5141442;28;20026;-68
2023/01/04 11:59:05;;;;;;;1.73;1.60;;;17.20;56.80;;;;;;5142044;28;20031;-68
2023/01/04 12:01:34;;;;;;;2.83;2.00;;;17.20;56.80;;;;;;5141325;28;20026;-68
2023/01/04 12:04:01;;;;;;;2.90;1.65;;;17.20;56.80;;;;;;5141304;27;20090;-70
2023/01/04 12:06:40;;;;;;;2.35;1.60;;;17.20;56.90;;;;;;5143844;27;20063;-69
2023/01/04 12:09:13;;;;;;;2.80;1.23;;;17.20;56.90;;;;;;5145077;27;20188;-68
2023/01/04 12:11:49;;;;;;;1.88;1.67;;;17.10;56.90;;;;;;5145055;27;20111;-69
2023/01/04 12:14:33;;;;;;;1.92;1.80;;;17.20;57.00;;;;;;5144967;27;20023;-69
2023/01/04 12:17:12;;;;;;;1.85;1.52;;;17.10;57.00;;;;;;5144950;27;20515;-71
2023/01/04 12:19:41;;;;;;;2.17;1.65;;;17.10;57.00;;;;;;5126485;27;20314;-68
2023/01/04 12:22:36;;;;;;;3.50;1.55;;;17.10;57.00;;;;;;5144790;27;20034;-68
2023/01/04 12:25:28;;;;;;;14.73;2.20;;;17.10;56.90;;;;;;5142703;27;20030;-68
2023/01/04 12:27:54;;;;;;;7.13;4.10;;;17.00;57.00;;;;;;5130161;27;20051;-69
2023/01/04 12:30:44;;;;;;;7.95;3.10;;;17.00;57.00;;;;;;5144637;27;20251;-69
2023/01/04 12:33:29;;;;;;;22.10;5.45;;;17.00;57.00;;;;;;5145983;27;20038;-76
2023/01/04 12:36:01;;;;;;;26.98;6.82;;;16.80;55.20;;;;;;5145207;27;20023;-71
2023/01/04 12:38:55;;;;;;;212.85;25.83;;;16.40;55.00;;;;;;5145029;27;20015;-75
2023/01/04 12:41:23;;;;;;;104.05;13.88;;;16.20;56.00;;;;;;5145017;27;20356;-77
2023/01/04 12:43:51;;;;;;;39.95;7.00;;;16.40;57.00;;;;;;5130545;27;20031;-73
2023/01/04 12:49:28;;;;;;;15.95;3.10;;;16.70;57.40;;;;;;5132343;27;20030;-72
2023/01/04 12:52:06;;;;;;;22.45;4.18;;;16.80;57.30;;;;;;5123631;28;20072;-73
2023/01/04 12:55:00;;;;;;;24.20;3.50;;;16.80;57.10;;;;;;5115045;27;20019;-70
2023/01/04 12:57:37;;;;;;;24.38;3.95;;;16.90;57.10;;;;;;5116551;27;20370;-74
2023/01/04 13:00:11;;;;;;;18.45;4.55;;;16.90;57.10;;;;;;5123456;28;20086;-77
2023/01/04 13:02:50;;;;;;;12.70;3.47;;;16.90;57.10;;;;;;5123735;28;20031;-72
2023/01/04 13:05:16;;;;;;;9.25;3.33;;;16.90;57.20;;;;;;5123391;28;20027;-74
2023/01/04 13:07:45;;;;;;;14.68;3.20;;;16.90;57.30;;;;;;5123365;28;20051;-77
2023/01/04 13:10:16;;;;;;;;;;;16.90;57.30;;;;;;5105557;28;20287;-76
2023/01/04 13:12:57;;;;;;;11.02;2.72;;;16.90;57.40;;;;;;5123744;28;19946;-76
2023/01/04 13:15:35;;;;;;;11.70;3.30;;;16.90;57.40;;;;;;5124007;28;20081;-72
2023/01/04 13:18:03;;;;;;;10.13;3.13;;;16.90;57.40;;;;;;5106179;28;20288;-75
2023/01/04 13:20:29;;;;;;;11.55;3.00;;;16.90;57.50;;;;;;5123602;28;20061;-74
2023/01/04 13:22:58;;;;;;;92.18;11.93;;;16.90;57.30;;;;;;5124980;28;20022;-74
2023/01/04 13:25:25;;;;;;;23.45;4.55;;;17.00;57.40;;;;;;5123623;28;20084;-72
2023/01/04 13:28:17;;;;;;;16.65;4.03;;;17.00;57.60;;;;;;5123650;28;20335;-76
2023/01/04 13:30:44;;;;;;;18.77;4.40;;;17.00;57.60;;;;;;5123488;28;20086;-75
2023/01/04 13:33:22;;;;;;;16.52;3.53;;;17.10;57.10;;;;;;5124161;28;20022;-75
2023/01/04 13:36:03;;;;;;;21.17;3.47;;;17.10;56.90;;;;;;5123629;28;20254;-74
2023/01/04 13:38:32;;;;;;;20.80;3.20;;;17.20;56.60;;;;;;5123187;28;20080;-71
2023/01/04 13:40:57;;;;;;;18.70;3.85;;;17.30;56.60;;;;;;5123080;28;20038;-72
2023/01/04 13:43:46;;;;;;;13.93;4.03;;;17.30;56.60;;;;;;5123143;28;20301;-73
2023/01/04 13:46:21;;;;;;;12.98;3.60;;;17.30;56.20;;;;;;5122917;28;20282;-72
2023/01/04 13:48:50;;;;;;;13.27;3.55;;;17.40;56.30;;;;;;5123264;28;20046;-72
2023/01/04 13:51:33;;;;;;;82.57;8.73;;;17.40;56.20;;;;;;5123269;28;20067;-72
2023/01/04 13:54:02;;;;;;;33.00;6.03;;;17.30;56.30;;;;;;5123158;28;20020;-74